sensor_id;sensor_type;location;lat;lon;timestamp;P1;durP1;ratioP1;P2;durP2;ratioP2
50417;SDS011;36346;48.280;14.292;2023-05-03T00:01:32;13.00;;;13.00;;
50417;SDS011;36346;48.280;14.292;2023-05-03T00:04:00;13.04;;;13.04;;
50417;SDS011;36346;48.280;14.292;2023-05-03T00:06:28;12.70;;;12.70;;
50417;SDS011;36346;48.280;14.292;2023-05-03T00:08:56;12.86;;;12.86;;
50417;SDS011;36346;48.280;14.292;2023-05-03T00:11:24;12.82;;;12.82;;
50417;SDS011;36346;48.280;14.292;2023-05-03T00:13:52;12.23;;;12.23;;
50417;SDS011;36346;48.280;14.292;2023-05-03T00:16:20;13.03;;;13.03;;
50417;SDS011;36346;48.280;14.292;2023-05-03T00:18:48;13.02;;;13.02;;
50417;SDS011;36346;48.280;14.292;2023-05-03T00:21:16;13.40;;;13.40;;
50417;SDS011;36346;48.280;14.292;2023-05-03T00:23:44;13.18;;;13.18;;
50417;SDS011;36346;48.280;14.292;2023-05-03T00:26:12;13.75;;;13.75;;
50417;SDS011;36346;48.280;14.292;2023-05-03T00:28:40;13.59;;;13.59;;
50417;SDS011;36346;48.280;14.292;2023-05-03T00:31:09;13.84;;;13.84;;
50417;SDS011;36346;48.280;14.292;2023-05-03T00:33:38;13.52;;;13.52;;
50417;SDS011;36346;48.280;14.292;2023-05-03T00:36:07;13.56;;;13.56;;
50417;SDS011;36346;48.280;14.292;2023-05-03T00:38:39;13.71;;;13.71;;
50417;SDS011;36346;48.280;14.292;2023-05-03T00:41:08;13.77;;;13.77;;
50417;SDS011;36346;48.280;14.292;2023-05-03T00:43:37;14.40;;;14.40;;
50417;SDS011;36346;48.280;14.292;2023-05-03T00:46:06;15.39;;;15.39;;
50417;SDS011;36346;48.280;14.292;2023-05-03T00:48:44;14.95;;;14.95;;
50417;SDS011;36346;48.280;14.292;2023-05-03T00:51:14;15.21;;;15.21;;
50417;SDS011;36346;48.280;14.292;2023-05-03T00:53:42;14.94;;;14.94;;
50417;SDS011;36346;48.280;14.292;2023-05-03T00:56:10;15.49;;;15.49;;
50417;SDS011;36346;48.280;14.292;2023-05-03T00:58:38;16.72;;;16.72;;
50417;SDS011;36346;48.280;14.292;2023-05-03T01:01:07;16.68;;;16.68;;
50417;SDS011;36346;48.280;14.292;2023-05-03T01:03:36;17.20;;;17.20;;
50417;SDS011;36346;48.280;14.292;2023-05-03T01:06:14;17.49;;;17.49;;
50417;SDS011;36346;48.280;14.292;2023-05-03T01:09:02;17.15;;;17.15;;
50417;SDS011;36346;48.280;14.292;2023-05-03T01:11:37;18.22;;;18.22;;
50417;SDS011;36346;48.280;14.292;2023-05-03T01:17:13;18.43;;;18.43;;
50417;SDS011;36346;48.280;14.292;2023-05-03T01:19:47;18.26;;;18.26;;
50417;SDS011;36346;48.280;14.292;2023-05-03T01:25:08;17.47;;;17.47;;
50417;SDS011;36346;48.280;14.292;2023-05-03T01:27:39;17.66;;;17.66;;
50417;SDS011;36346;48.280;14.292;2023-05-03T01:30:09;17.18;;;17.18;;
50417;SDS011;36346;48.280;14.292;2023-05-03T01:37:52;15.78;;;15.78;;
50417;SDS011;36346;48.280;14.292;2023-05-03T01:40:24;15.94;;;15.94;;
50417;SDS011;36346;48.280;14.292;2023-05-03T01:42:55;15.04;;;15.04;;
50417;SDS011;36346;48.280;14.292;2023-05-03T01:45:24;15.54;;;15.54;;
50417;SDS011;36346;48.280;14.292;2023-05-03T01:47:54;15.44;;;15.44;;
50417;SDS011;36346;48.280;14.292;2023-05-03T01:50:22;14.92;;;14.92;;
50417;SDS011;36346;48.280;14.292;2023-05-03T01:52:50;15.16;;;15.16;;
50417;SDS011;36346;48.280;14.292;2023-05-03T01:55:19;15.28;;;15.28;;
50417;SDS011;36346;48.280;14.292;2023-05-03T01:57:47;14.73;;;14.73;;
50417;SDS011;36346;48.280;14.292;2023-05-03T02:00:15;14.98;;;14.98;;
50417;SDS011;36346;48.280;14.292;2023-05-03T02:02:43;14.58;;;14.58;;
50417;SDS011;36346;48.280;14.292;2023-05-03T02:05:12;14.34;;;14.34;;
50417;SDS011;36346;48.280;14.292;2023-05-03T02:07:40;14.58;;;14.58;;
50417;SDS011;36346;48.280;14.292;2023-05-03T02:10:08;13.89;;;13.89;;
50417;SDS011;36346;48.280;14.292;2023-05-03T02:12:41;14.86;;;14.86;;
50417;SDS011;36346;48.280;14.292;2023-05-03T02:15:13;14.46;;;14.45;;
50417;SDS011;36346;48.280;14.292;2023-05-03T02:17:41;14.36;;;14.36;;
50417;SDS011;36346;48.280;14.292;2023-05-03T02:20:09;14.52;;;14.52;;
50417;SDS011;36346;48.280;14.292;2023-05-03T02:22:39;14.83;;;14.83;;
50417;SDS011;36346;48.280;14.292;2023-05-03T02:25:06;14.37;;;14.37;;
50417;SDS011;36346;48.280;14.292;2023-05-03T02:27:34;13.66;;;13.66;;
50417;SDS011;36346;48.280;14.292;2023-05-03T02:30:03;13.75;;;13.75;;
50417;SDS011;36346;48.280;14.292;2023-05-03T02:32:38;13.37;;;13.37;;
50417;SDS011;36346;48.280;14.292;2023-05-03T02:35:06;12.90;;;12.90;;
50417;SDS011;36346;48.280;14.292;2023-05-03T02:37:35;12.83;;;12.83;;
50417;SDS011;36346;48.280;14.292;2023-05-03T02:40:08;12.29;;;12.29;;
50417;SDS011;36346;48.280;14.292;2023-05-03T02:42:36;12.48;;;12.48;;
50417;SDS011;36346;48.280;14.292;2023-05-03T02:45:06;12.07;;;12.07;;
50417;SDS011;36346;48.280;14.292;2023-05-03T02:47:35;11.71;;;11.71;;
50417;SDS011;36346;48.280;14.292;2023-05-03T02:50:03;11.61;;;11.61;;
50417;SDS011;36346;48.280;14.292;2023-05-03T02:52:36;11.70;;;11.70;;
50417;SDS011;36346;48.280;14.292;2023-05-03T02:55:04;11.06;;;11.06;;
50417;SDS011;36346;48.280;14.292;2023-05-03T02:57:33;10.85;;;10.85;;
50417;SDS011;36346;48.280;14.292;2023-05-03T03:00:02;11.10;;;11.10;;
50417;SDS011;36346;48.280;14.292;2023-05-03T03:02:32;11.34;;;11.34;;
50417;SDS011;36346;48.280;14.292;2023-05-03T03:05:00;11.07;;;11.07;;
50417;SDS011;36346;48.280;14.292;2023-05-03T03:07:28;11.45;;;11.45;;
50417;SDS011;36346;48.280;14.292;2023-05-03T03:09:57;10.98;;;10.98;;
50417;SDS011;36346;48.280;14.292;2023-05-03T03:12:25;10.99;;;10.99;;
50417;SDS011;36346;48.280;14.292;2023-05-03T03:14:56;11.05;;;11.05;;
50417;SDS011;36346;48.280;14.292;2023-05-03T03:17:24;10.77;;;10.77;;
50417;SDS011;36346;48.280;14.292;2023-05-03T03:19:52;10.89;;;10.89;;
50417;SDS011;36346;48.280;14.292;2023-05-03T03:22:20;11.41;;;11.41;;
50417;SDS011;36346;48.280;14.292;2023-05-03T03:24:48;11.11;;;11.11;;
50417;SDS011;36346;48.280;14.292;2023-05-03T03:27:16;11.04;;;11.04;;
50417;SDS011;36346;48.280;14.292;2023-05-03T03:29:44;10.72;;;10.72;;
50417;SDS011;36346;48.280;14.292;2023-05-03T03:32:13;12.05;;;12.05;;
50417;SDS011;36346;48.280;14.292;2023-05-03T03:34:42;11.96;;;11.96;;
50417;SDS011;36346;48.280;14.292;2023-05-03T03:37:10;12.40;;;12.40;;
50417;SDS011;36346;48.280;14.292;2023-05-03T03:39:41;13.22;;;13.22;;
50417;SDS011;36346;48.280;14.292;2023-05-03T03:42:10;13.54;;;13.54;;
50417;SDS011;36346;48.280;14.292;2023-05-03T03:44:40;13.13;;;13.13;;
50417;SDS011;36346;48.280;14.292;2023-05-03T03:47:08;14.19;;;14.19;;
50417;SDS011;36346;48.280;14.292;2023-05-03T03:49:36;14.84;;;14.84;;
50417;SDS011;36346;48.280;14.292;2023-05-03T03:52:04;14.76;;;14.76;;
50417;SDS011;36346;48.280;14.292;2023-05-03T03:54:35;14.82;;;14.82;;
50417;SDS011;36346;48.280;14.292;2023-05-03T03:57:03;14.61;;;14.61;;
50417;SDS011;36346;48.280;14.292;2023-05-03T03:59:32;14.80;;;14.80;;
50417;SDS011;36346;48.280;14.292;2023-05-03T04:02:00;15.06;;;15.06;;
50417;SDS011;36346;48.280;14.292;2023-05-03T04:04:28;14.75;;;14.75;;
50417;SDS011;36346;48.280;14.292;2023-05-03T04:06:58;15.08;;;15.08;;
50417;SDS011;36346;48.280;14.292;2023-05-03T04:09:27;15.04;;;15.04;;
50417;SDS011;36346;48.280;14.292;2023-05-03T04:11:56;15.38;;;15.38;;
50417;SDS011;36346;48.280;14.292;2023-05-03T04:14:23;22.17;;;22.15;;
50417;SDS011;36346;48.280;14.292;2023-05-03T04:16:52;15.12;;;15.12;;
50417;SDS011;36346;48.280;14.292;2023-05-03T04:19:21;15.27;;;15.27;;
50417;SDS011;36346;48.280;14.292;2023-05-03T04:21:50;15.53;;;15.53;;
50417;SDS011;36346;48.280;14.292;2023-05-03T04:24:20;15.71;;;15.71;;
50417;SDS011;36346;48.280;14.292;2023-05-03T04:26:49;15.92;;;15.92;;
50417;SDS011;36346;48.280;14.292;2023-05-03T04:29:25;16.45;;;16.45;;
50417;SDS011;36346;48.280;14.292;2023-05-03T04:31:53;16.12;;;16.12;;
50417;SDS011;36346;48.280;14.292;2023-05-03T04:34:22;15.27;;;15.27;;
50417;SDS011;36346;48.280;14.292;2023-05-03T04:36:52;14.45;;;14.45;;
50417;SDS011;36346;48.280;14.292;2023-05-03T04:39:21;14.99;;;14.99;;
50417;SDS011;36346;48.280;14.292;2023-05-03T04:41:49;14.74;;;14.74;;
50417;SDS011;36346;48.280;14.292;2023-05-03T04:44:17;13.34;;;13.34;;
50417;SDS011;36346;48.280;14.292;2023-05-03T04:46:48;13.51;;;13.51;;
50417;SDS011;36346;48.280;14.292;2023-05-03T04:49:18;12.70;;;12.70;;
50417;SDS011;36346;48.280;14.292;2023-05-03T04:51:46;13.16;;;13.16;;
50417;SDS011;36346;48.280;14.292;2023-05-03T04:54:14;13.23;;;13.23;;
50417;SDS011;36346;48.280;14.292;2023-05-03T04:56:42;12.80;;;12.80;;
50417;SDS011;36346;48.280;14.292;2023-05-03T04:59:15;12.39;;;12.39;;
50417;SDS011;36346;48.280;14.292;2023-05-03T05:01:43;12.87;;;12.87;;
50417;SDS011;36346;48.280;14.292;2023-05-03T05:04:11;13.07;;;13.07;;
50417;SDS011;36346;48.280;14.292;2023-05-03T05:06:47;12.53;;;12.53;;
50417;SDS011;36346;48.280;14.292;2023-05-03T05:09:21;12.29;;;12.29;;
50417;SDS011;36346;48.280;14.292;2023-05-03T05:11:52;12.48;;;12.48;;
50417;SDS011;36346;48.280;14.292;2023-05-03T05:14:28;12.42;;;12.42;;
50417;SDS011;36346;48.280;14.292;2023-05-03T05:16:57;12.48;;;12.48;;
50417;SDS011;36346;48.280;14.292;2023-05-03T05:19:26;12.62;;;12.62;;
50417;SDS011;36346;48.280;14.292;2023-05-03T05:21:54;12.07;;;12.07;;
50417;SDS011;36346;48.280;14.292;2023-05-03T05:24:27;12.01;;;12.01;;
50417;SDS011;36346;48.280;14.292;2023-05-03T05:26:55;12.04;;;12.04;;
50417;SDS011;36346;48.280;14.292;2023-05-03T05:29:23;11.93;;;11.93;;
50417;SDS011;36346;48.280;14.292;2023-05-03T05:31:51;12.13;;;12.13;;
50417;SDS011;36346;48.280;14.292;2023-05-03T05:34:20;12.54;;;12.54;;
50417;SDS011;36346;48.280;14.292;2023-05-03T05:36:49;12.51;;;12.51;;
50417;SDS011;36346;48.280;14.292;2023-05-03T05:39:19;12.38;;;12.38;;
50417;SDS011;36346;48.280;14.292;2023-05-03T05:41:50;12.55;;;12.55;;
50417;SDS011;36346;48.280;14.292;2023-05-03T05:44:18;12.87;;;12.87;;
50417;SDS011;36346;48.280;14.292;2023-05-03T05:46:48;12.34;;;12.34;;
50417;SDS011;36346;48.280;14.292;2023-05-03T05:49:17;12.82;;;12.82;;
50417;SDS011;36346;48.280;14.292;2023-05-03T05:51:45;13.20;;;13.20;;
50417;SDS011;36346;48.280;14.292;2023-05-03T05:54:13;13.08;;;13.08;;
50417;SDS011;36346;48.280;14.292;2023-05-03T05:56:43;13.15;;;13.15;;
50417;SDS011;36346;48.280;14.292;2023-05-03T05:59:11;12.90;;;12.90;;
50417;SDS011;36346;48.280;14.292;2023-05-03T06:01:39;13.72;;;13.72;;
50417;SDS011;36346;48.280;14.292;2023-05-03T06:04:12;13.14;;;13.14;;
50417;SDS011;36346;48.280;14.292;2023-05-03T06:06:40;12.77;;;12.77;;
50417;SDS011;36346;48.280;14.292;2023-05-03T06:09:08;12.36;;;12.36;;
50417;SDS011;36346;48.280;14.292;2023-05-03T06:11:52;12.97;;;12.97;;
50417;SDS011;36346;48.280;14.292;2023-05-03T06:14:20;13.19;;;13.19;;
50417;SDS011;36346;48.280;14.292;2023-05-03T06:16:49;12.67;;;12.67;;
50417;SDS011;36346;48.280;14.292;2023-05-03T06:19:17;12.34;;;12.34;;
50417;SDS011;36346;48.280;14.292;2023-05-03T06:21:45;12.43;;;12.43;;
50417;SDS011;36346;48.280;14.292;2023-05-03T06:24:15;12.84;;;12.84;;
50417;SDS011;36346;48.280;14.292;2023-05-03T06:26:50;12.72;;;12.72;;
50417;SDS011;36346;48.280;14.292;2023-05-03T06:29:20;12.22;;;12.22;;
50417;SDS011;36346;48.280;14.292;2023-05-03T06:31:48;12.78;;;12.78;;
50417;SDS011;36346;48.280;14.292;2023-05-03T06:34:17;12.98;;;12.98;;
50417;SDS011;36346;48.280;14.292;2023-05-03T06:36:52;13.21;;;13.21;;
50417;SDS011;36346;48.280;14.292;2023-05-03T06:39:22;13.80;;;13.80;;
50417;SDS011;36346;48.280;14.292;2023-05-03T06:41:50;14.29;;;14.29;;
50417;SDS011;36346;48.280;14.292;2023-05-03T06:44:18;13.72;;;13.72;;
50417;SDS011;36346;48.280;14.292;2023-05-03T06:46:46;13.02;;;13.02;;
50417;SDS011;36346;48.280;14.292;2023-05-03T06:49:15;13.24;;;13.24;;
50417;SDS011;36346;48.280;14.292;2023-05-03T06:51:43;14.12;;;14.09;;
50417;SDS011;36346;48.280;14.292;2023-05-03T06:54:11;14.66;;;14.65;;
50417;SDS011;36346;48.280;14.292;2023-05-03T06:56:38;14.29;;;14.29;;
50417;SDS011;36346;48.280;14.292;2023-05-03T06:59:07;13.97;;;13.97;;
50417;SDS011;36346;48.280;14.292;2023-05-03T07:01:35;13.54;;;13.54;;
50417;SDS011;36346;48.280;14.292;2023-05-03T07:04:03;14.85;;;14.85;;
50417;SDS011;36346;48.280;14.292;2023-05-03T07:06:31;14.14;;;14.14;;
50417;SDS011;36346;48.280;14.292;2023-05-03T07:09:15;14.06;;;14.06;;
50417;SDS011;36346;48.280;14.292;2023-05-03T07:11:44;14.22;;;14.22;;
50417;SDS011;36346;48.280;14.292;2023-05-03T07:14:16;13.74;;;13.74;;
50417;SDS011;36346;48.280;14.292;2023-05-03T07:16:44;13.94;;;13.94;;
50417;SDS011;36346;48.280;14.292;2023-05-03T07:19:12;14.06;;;14.06;;
50417;SDS011;36346;48.280;14.292;2023-05-03T07:21:40;14.04;;;14.04;;
50417;SDS011;36346;48.280;14.292;2023-05-03T07:24:09;14.18;;;14.18;;
50417;SDS011;36346;48.280;14.292;2023-05-03T07:26:39;14.60;;;14.60;;
50417;SDS011;36346;48.280;14.292;2023-05-03T07:29:09;13.61;;;13.61;;
50417;SDS011;36346;48.280;14.292;2023-05-03T07:31:37;13.77;;;13.77;;
50417;SDS011;36346;48.280;14.292;2023-05-03T07:34:05;13.90;;;13.90;;
50417;SDS011;36346;48.280;14.292;2023-05-03T07:36:33;13.78;;;13.78;;
50417;SDS011;36346;48.280;14.292;2023-05-03T07:39:02;14.84;;;14.84;;
50417;SDS011;36346;48.280;14.292;2023-05-03T07:41:31;14.45;;;14.45;;
50417;SDS011;36346;48.280;14.292;2023-05-03T07:43:59;14.21;;;14.21;;
50417;SDS011;36346;48.280;14.292;2023-05-03T07:46:27;14.21;;;14.21;;
50417;SDS011;36346;48.280;14.292;2023-05-03T07:48:56;13.91;;;13.91;;
50417;SDS011;36346;48.280;14.292;2023-05-03T07:51:24;14.39;;;14.39;;
50417;SDS011;36346;48.280;14.292;2023-05-03T07:53:53;13.80;;;13.80;;
50417;SDS011;36346;48.280;14.292;2023-05-03T07:56:22;14.09;;;14.09;;
50417;SDS011;36346;48.280;14.292;2023-05-03T07:58:51;14.15;;;14.15;;
50417;SDS011;36346;48.280;14.292;2023-05-03T08:01:35;13.94;;;13.94;;
50417;SDS011;36346;48.280;14.292;2023-05-03T08:04:03;13.70;;;13.70;;
50417;SDS011;36346;48.280;14.292;2023-05-03T08:06:32;13.20;;;13.20;;
50417;SDS011;36346;48.280;14.292;2023-05-03T08:09:02;14.03;;;14.03;;
50417;SDS011;36346;48.280;14.292;2023-05-03T08:11:31;13.72;;;13.72;;
50417;SDS011;36346;48.280;14.292;2023-05-03T08:13:59;13.44;;;13.44;;
50417;SDS011;36346;48.280;14.292;2023-05-03T08:16:27;13.55;;;13.55;;
50417;SDS011;36346;48.280;14.292;2023-05-03T08:18:55;13.94;;;13.94;;
50417;SDS011;36346;48.280;14.292;2023-05-03T08:21:23;13.00;;;13.00;;
50417;SDS011;36346;48.280;14.292;2023-05-03T08:23:51;12.86;;;12.86;;
50417;SDS011;36346;48.280;14.292;2023-05-03T08:26:19;12.81;;;12.75;;
50417;SDS011;36346;48.280;14.292;2023-05-03T08:28:48;12.81;;;12.78;;
50417;SDS011;36346;48.280;14.292;2023-05-03T08:31:16;11.99;;;11.99;;
50417;SDS011;36346;48.280;14.292;2023-05-03T08:33:44;12.08;;;12.08;;
50417;SDS011;36346;48.280;14.292;2023-05-03T08:36:12;12.02;;;12.02;;
50417;SDS011;36346;48.280;14.292;2023-05-03T08:38:40;11.05;;;11.05;;
50417;SDS011;36346;48.280;14.292;2023-05-03T08:41:21;11.04;;;11.04;;
50417;SDS011;36346;48.280;14.292;2023-05-03T08:43:57;11.28;;;11.28;;
50417;SDS011;36346;48.280;14.292;2023-05-03T08:46:27;11.56;;;11.56;;
50417;SDS011;36346;48.280;14.292;2023-05-03T08:48:56;12.14;;;12.14;;
50417;SDS011;36346;48.280;14.292;2023-05-03T08:51:25;11.45;;;11.45;;
50417;SDS011;36346;48.280;14.292;2023-05-03T08:53:54;10.85;;;10.85;;
50417;SDS011;36346;48.280;14.292;2023-05-03T08:56:24;10.90;;;10.90;;
50417;SDS011;36346;48.280;14.292;2023-05-03T08:58:56;10.67;;;10.67;;
50417;SDS011;36346;48.280;14.292;2023-05-03T09:01:31;10.40;;;10.40;;
50417;SDS011;36346;48.280;14.292;2023-05-03T09:04:00;10.45;;;10.45;;
50417;SDS011;36346;48.280;14.292;2023-05-03T09:06:29;10.34;;;10.34;;
50417;SDS011;36346;48.280;14.292;2023-05-03T09:09:00;11.20;;;11.20;;
50417;SDS011;36346;48.280;14.292;2023-05-03T09:11:32;10.81;;;10.81;;
50417;SDS011;36346;48.280;14.292;2023-05-03T09:14:14;10.73;;;10.73;;
50417;SDS011;36346;48.280;14.292;2023-05-03T09:16:44;10.01;;;10.01;;
50417;SDS011;36346;48.280;14.292;2023-05-03T09:19:14;9.67;;;9.67;;
50417;SDS011;36346;48.280;14.292;2023-05-03T09:21:43;9.56;;;9.56;;
50417;SDS011;36346;48.280;14.292;2023-05-03T09:26:46;9.94;;;9.94;;
50417;SDS011;36346;48.280;14.292;2023-05-03T09:32:01;9.49;;;9.49;;
50417;SDS011;36346;48.280;14.292;2023-05-03T09:34:32;9.94;;;9.94;;
50417;SDS011;36346;48.280;14.292;2023-05-03T09:37:01;9.51;;;9.51;;
50417;SDS011;36346;48.280;14.292;2023-05-03T09:39:29;9.69;;;9.69;;
50417;SDS011;36346;48.280;14.292;2023-05-03T09:41:57;9.60;;;9.60;;
50417;SDS011;36346;48.280;14.292;2023-05-03T09:44:38;9.66;;;9.66;;
50417;SDS011;36346;48.280;14.292;2023-05-03T09:47:08;9.14;;;9.14;;
50417;SDS011;36346;48.280;14.292;2023-05-03T09:49:37;9.39;;;9.39;;
50417;SDS011;36346;48.280;14.292;2023-05-03T09:52:06;9.22;;;9.22;;
50417;SDS011;36346;48.280;14.292;2023-05-03T09:54:35;9.34;;;9.34;;
50417;SDS011;36346;48.280;14.292;2023-05-03T09:57:05;8.68;;;8.68;;
50417;SDS011;36346;48.280;14.292;2023-05-03T09:59:34;9.08;;;9.08;;
50417;SDS011;36346;48.280;14.292;2023-05-03T10:02:04;8.92;;;8.92;;
50417;SDS011;36346;48.280;14.292;2023-05-03T10:04:46;9.02;;;9.02;;
50417;SDS011;36346;48.280;14.292;2023-05-03T10:07:16;9.19;;;9.19;;
50417;SDS011;36346;48.280;14.292;2023-05-03T10:09:46;8.87;;;8.87;;
50417;SDS011;36346;48.280;14.292;2023-05-03T10:12:14;8.79;;;8.79;;
50417;SDS011;36346;48.280;14.292;2023-05-03T10:14:45;9.24;;;9.24;;
50417;SDS011;36346;48.280;14.292;2023-05-03T10:17:19;9.97;;;9.97;;
50417;SDS011;36346;48.280;14.292;2023-05-03T10:20:15;10.54;;;10.54;;
50417;SDS011;36346;48.280;14.292;2023-05-03T10:25:33;9.73;;;9.73;;
50417;SDS011;36346;48.280;14.292;2023-05-03T10:30:37;9.39;;;9.39;;
50417;SDS011;36346;48.280;14.292;2023-05-03T10:35:41;8.94;;;8.94;;
50417;SDS011;36346;48.280;14.292;2023-05-03T10:38:18;11.18;;;11.18;;
50417;SDS011;36346;48.280;14.292;2023-05-03T10:40:51;10.67;;;10.67;;
50417;SDS011;36346;48.280;14.292;2023-05-03T10:48:24;10.28;;;10.28;;
50417;SDS011;36346;48.280;14.292;2023-05-03T10:50:53;10.25;;;10.25;;
50417;SDS011;36346;48.280;14.292;2023-05-03T10:56:07;10.75;;;10.75;;
50417;SDS011;36346;48.280;14.292;2023-05-03T10:58:47;12.65;;;12.65;;
50417;SDS011;36346;48.280;14.292;2023-05-03T11:01:17;11.98;;;11.98;;
50417;SDS011;36346;48.280;14.292;2023-05-03T11:04:04;12.40;;;12.40;;
50417;SDS011;36346;48.280;14.292;2023-05-03T11:06:36;12.76;;;12.76;;
50417;SDS011;36346;48.280;14.292;2023-05-03T11:09:08;13.35;;;13.35;;
50417;SDS011;36346;48.280;14.292;2023-05-03T11:11:39;12.15;;;12.15;;
50417;SDS011;36346;48.280;14.292;2023-05-03T11:14:08;11.92;;;11.92;;
50417;SDS011;36346;48.280;14.292;2023-05-03T11:16:36;13.73;;;13.73;;
50417;SDS011;36346;48.280;14.292;2023-05-03T11:19:14;13.10;;;13.10;;
50417;SDS011;36346;48.280;14.292;2023-05-03T11:21:43;13.00;;;13.00;;
50417;SDS011;36346;48.280;14.292;2023-05-03T11:24:13;12.64;;;12.64;;
50417;SDS011;36346;48.280;14.292;2023-05-03T11:26:42;12.41;;;12.41;;
50417;SDS011;36346;48.280;14.292;2023-05-03T11:29:10;12.15;;;12.15;;
50417;SDS011;36346;48.280;14.292;2023-05-03T11:31:40;13.10;;;13.10;;
50417;SDS011;36346;48.280;14.292;2023-05-03T11:34:10;13.72;;;13.72;;
50417;SDS011;36346;48.280;14.292;2023-05-03T11:36:39;14.04;;;14.04;;
50417;SDS011;36346;48.280;14.292;2023-05-03T11:39:08;13.01;;;13.01;;
50417;SDS011;36346;48.280;14.292;2023-05-03T11:41:38;12.39;;;12.39;;
50417;SDS011;36346;48.280;14.292;2023-05-03T11:44:06;12.47;;;12.47;;
50417;SDS011;36346;48.280;14.292;2023-05-03T11:46:45;11.85;;;11.85;;
50417;SDS011;36346;48.280;14.292;2023-05-03T11:49:18;11.81;;;11.81;;
50417;SDS011;36346;48.280;14.292;2023-05-03T11:51:46;12.62;;;12.62;;
50417;SDS011;36346;48.280;14.292;2023-05-03T11:54:20;12.44;;;12.44;;
50417;SDS011;36346;48.280;14.292;2023-05-03T11:56:56;11.99;;;11.99;;
50417;SDS011;36346;48.280;14.292;2023-05-03T11:59:38;10.91;;;10.91;;
50417;SDS011;36346;48.280;14.292;2023-05-03T12:02:08;14.20;;;14.20;;
50417;SDS011;36346;48.280;14.292;2023-05-03T12:04:42;13.23;;;13.23;;
50417;SDS011;36346;48.280;14.292;2023-05-03T12:07:12;11.11;;;11.11;;
50417;SDS011;36346;48.280;14.292;2023-05-03T12:09:42;11.22;;;11.22;;
50417;SDS011;36346;48.280;14.292;2023-05-03T12:12:18;11.45;;;11.45;;
50417;SDS011;36346;48.280;14.292;2023-05-03T12:14:59;11.76;;;11.76;;
50417;SDS011;36346;48.280;14.292;2023-05-03T12:17:35;11.74;;;11.74;;
50417;SDS011;36346;48.280;14.292;2023-05-03T12:20:16;10.84;;;10.84;;
50417;SDS011;36346;48.280;14.292;2023-05-03T12:23:06;9.04;;;9.04;;
50417;SDS011;36346;48.280;14.292;2023-05-03T12:25:37;9.02;;;9.02;;
50417;SDS011;36346;48.280;14.292;2023-05-03T12:28:06;9.16;;;9.16;;
50417;SDS011;36346;48.280;14.292;2023-05-03T12:30:37;9.35;;;9.35;;
50417;SDS011;36346;48.280;14.292;2023-05-03T12:33:07;9.21;;;9.21;;
50417;SDS011;36346;48.280;14.292;2023-05-03T12:35:37;9.25;;;9.25;;
50417;SDS011;36346;48.280;14.292;2023-05-03T12:38:07;9.69;;;9.69;;
50417;SDS011;36346;48.280;14.292;2023-05-03T12:40:37;10.65;;;10.65;;
50417;SDS011;36346;48.280;14.292;2023-05-03T12:43:06;12.42;;;12.42;;
50417;SDS011;36346;48.280;14.292;2023-05-03T12:45:34;13.06;;;13.06;;
50417;SDS011;36346;48.280;14.292;2023-05-03T12:48:07;12.52;;;12.52;;
50417;SDS011;36346;48.280;14.292;2023-05-03T12:50:36;12.45;;;12.45;;
50417;SDS011;36346;48.280;14.292;2023-05-03T12:53:06;12.60;;;12.60;;
50417;SDS011;36346;48.280;14.292;2023-05-03T12:55:37;12.48;;;12.48;;
50417;SDS011;36346;48.280;14.292;2023-05-03T12:58:11;12.16;;;12.16;;
50417;SDS011;36346;48.280;14.292;2023-05-03T13:00:59;11.14;;;11.14;;
50417;SDS011;36346;48.280;14.292;2023-05-03T13:03:29;11.16;;;11.16;;
50417;SDS011;36346;48.280;14.292;2023-05-03T13:06:00;10.26;;;10.26;;
50417;SDS011;36346;48.280;14.292;2023-05-03T13:08:40;9.40;;;9.40;;
50417;SDS011;36346;48.280;14.292;2023-05-03T13:11:16;10.21;;;10.21;;
50417;SDS011;36346;48.280;14.292;2023-05-03T13:13:48;10.39;;;10.39;;
50417;SDS011;36346;48.280;14.292;2023-05-03T13:16:15;10.13;;;10.13;;
50417;SDS011;36346;48.280;14.292;2023-05-03T13:18:44;9.89;;;9.89;;
50417;SDS011;36346;48.280;14.292;2023-05-03T13:21:12;10.27;;;10.27;;
50417;SDS011;36346;48.280;14.292;2023-05-03T13:23:40;10.11;;;10.11;;
50417;SDS011;36346;48.280;14.292;2023-05-03T13:26:08;10.54;;;10.54;;
50417;SDS011;36346;48.280;14.292;2023-05-03T13:28:35;10.45;;;10.45;;
50417;SDS011;36346;48.280;14.292;2023-05-03T13:31:03;9.73;;;9.73;;
50417;SDS011;36346;48.280;14.292;2023-05-03T13:33:33;10.76;;;10.76;;
50417;SDS011;36346;48.280;14.292;2023-05-03T13:36:04;9.91;;;9.91;;
50417;SDS011;36346;48.280;14.292;2023-05-03T13:38:33;9.56;;;9.56;;
50417;SDS011;36346;48.280;14.292;2023-05-03T13:41:05;9.49;;;9.49;;
50417;SDS011;36346;48.280;14.292;2023-05-03T13:43:35;9.56;;;9.56;;
50417;SDS011;36346;48.280;14.292;2023-05-03T13:46:03;9.20;;;9.20;;
50417;SDS011;36346;48.280;14.292;2023-05-03T13:48:31;10.11;;;10.11;;
50417;SDS011;36346;48.280;14.292;2023-05-03T13:50:59;11.01;;;11.01;;
50417;SDS011;36346;48.280;14.292;2023-05-03T13:53:27;9.54;;;9.54;;
50417;SDS011;36346;48.280;14.292;2023-05-03T13:55:55;8.62;;;8.62;;
50417;SDS011;36346;48.280;14.292;2023-05-03T13:58:22;8.27;;;8.27;;
50417;SDS011;36346;48.280;14.292;2023-05-03T14:00:50;8.32;;;8.32;;
50417;SDS011;36346;48.280;14.292;2023-05-03T14:03:18;8.71;;;8.71;;
50417;SDS011;36346;48.280;14.292;2023-05-03T14:05:47;8.75;;;8.75;;
50417;SDS011;36346;48.280;14.292;2023-05-03T14:08:15;8.77;;;8.77;;
50417;SDS011;36346;48.280;14.292;2023-05-03T14:10:43;8.39;;;8.39;;
50417;SDS011;36346;48.280;14.292;2023-05-03T14:13:11;8.36;;;8.36;;
50417;SDS011;36346;48.280;14.292;2023-05-03T14:15:40;8.11;;;8.11;;
50417;SDS011;36346;48.280;14.292;2023-05-03T14:18:11;9.06;;;9.06;;
50417;SDS011;36346;48.280;14.292;2023-05-03T14:20:40;8.64;;;8.64;;
50417;SDS011;36346;48.280;14.292;2023-05-03T14:23:08;8.87;;;8.87;;
50417;SDS011;36346;48.280;14.292;2023-05-03T14:25:36;8.94;;;8.94;;
50417;SDS011;36346;48.280;14.292;2023-05-03T14:28:03;8.47;;;8.47;;
50417;SDS011;36346;48.280;14.292;2023-05-03T14:30:32;8.51;;;8.51;;
50417;SDS011;36346;48.280;14.292;2023-05-03T14:33:00;8.05;;;8.05;;
50417;SDS011;36346;48.280;14.292;2023-05-03T14:35:28;8.80;;;8.80;;
50417;SDS011;36346;48.280;14.292;2023-05-03T14:37:56;8.36;;;8.36;;
50417;SDS011;36346;48.280;14.292;2023-05-03T14:40:24;8.56;;;8.56;;
50417;SDS011;36346;48.280;14.292;2023-05-03T14:42:53;8.53;;;8.53;;
50417;SDS011;36346;48.280;14.292;2023-05-03T14:45:21;9.83;;;9.83;;
50417;SDS011;36346;48.280;14.292;2023-05-03T14:47:49;9.21;;;9.21;;
50417;SDS011;36346;48.280;14.292;2023-05-03T14:50:17;10.03;;;10.03;;
50417;SDS011;36346;48.280;14.292;2023-05-03T14:52:45;9.58;;;9.58;;
50417;SDS011;36346;48.280;14.292;2023-05-03T14:55:13;19.37;;;19.36;;
50417;SDS011;36346;48.280;14.292;2023-05-03T14:57:42;10.59;;;10.59;;
50417;SDS011;36346;48.280;14.292;2023-05-03T15:00:10;9.20;;;9.20;;
50417;SDS011;36346;48.280;14.292;2023-05-03T15:02:41;9.15;;;9.15;;